Time;durP1;ratioP1;P1;durP2;ratioP2;P2;SDS_P1;SDS_P2;PMS_P1;PMS_P2;Temp;Humidity;BMP_temperature;BMP_pressure;BME280_temperature;BME280_humidity;BME280_pressure;Samples;Min_cycle;Max_cycle;Signal;HPM_P1;HPM_P2
2021/04/29 00:00:29;;;;;;;22.20;13.97;;;7.20;99.90;;;;;;5187772;28;20223;-66
2021/04/29 00:03:00;;;;;;;27.20;14.40;;;7.20;99.90;;;;;;5187896;28;20572;-67
2021/04/29 00:05:33;;;;;;;24.10;15.43;;;7.10;99.90;;;;;;5187886;28;20238;-67
2021/04/29 00:08:04;;;;;;;26.10;15.60;;;7.10;99.90;;;;;;5187826;28;20652;-67
2021/04/29 00:10:36;;;;;;;25.10;15.63;;;7.10;99.90;;;;;;5187426;28;20203;-66
2021/04/29 00:13:08;;;;;;;22.53;14.37;;;7.10;99.90;;;;;;5187736;28;20211;-67
2021/04/29 00:15:39;;;;;;;26.40;14.80;;;7.10;99.90;;;;;;5187398;28;20230;-67
2021/04/29 00:18:11;;;;;;;25.83;14.70;;;7.10;99.90;;;;;;5187601;28;20278;-69
2021/04/29 00:20:44;;;;;;;27.47;15.53;;;7.10;99.90;;;;;;5187589;28;20206;-65
2021/04/29 00:23:15;;;;;;;19.93;12.90;;;7.10;99.90;;;;;;5187634;28;20222;-68
2021/04/29 00:25:46;;;;;;;24.17;13.53;;;7.20;99.90;;;;;;5187368;28;20210;-72
2021/04/29 00:28:18;;;;;;;23.33;14.10;;;7.10;99.90;;;;;;5187758;28;20210;-66
2021/04/29 00:30:50;;;;;;;23.63;13.97;;;7.10;99.90;;;;;;5187270;28;20249;-70
2021/04/29 00:33:22;;;;;;;23.77;15.10;;;7.10;99.90;;;;;;5187331;28;20207;-68
2021/04/29 00:35:54;;;;;;;24.00;14.17;;;7.10;99.90;;;;;;5187248;28;20660;-67
2021/04/29 00:38:25;;;;;;;23.47;12.93;;;7.10;99.90;;;;;;5187261;28;20238;-69
2021/04/29 00:40:57;;;;;;;24.93;14.40;;;7.10;99.90;;;;;;5187611;28;20199;-66
2021/04/29 00:43:29;;;;;;;22.33;14.27;;;7.10;99.90;;;;;;5186992;28;20579;-65
2021/04/29 00:46:00;;;;;;;25.77;15.83;;;7.10;99.90;;;;;;5187029;28;20218;-72
2021/04/29 00:48:32;;;;;;;24.70;15.33;;;7.10;99.90;;;;;;5187593;28;20203;-66
2021/04/29 00:51:04;;;;;;;27.17;15.30;;;7.10;99.90;;;;;;5187045;28;20214;-65
2021/04/29 00:53:39;;;;;;;27.73;16.03;;;7.10;99.90;;;;;;5187380;28;20641;-65
2021/04/29 00:56:11;;;;;;;27.67;15.37;;;7.10;99.90;;;;;;5198171;28;20227;-68
2021/04/29 00:58:43;;;;;;;22.40;14.83;;;7.10;99.90;;;;;;5222180;28;20205;-68
2021/04/29 01:01:14;;;;;;;25.40;14.93;;;7.10;99.90;;;;;;5206672;28;20209;-67
2021/04/29 01:04:06;;;;;;;24.13;15.00;;;7.10;99.90;;;;;;5206757;28;20210;-68
2021/04/29 01:06:46;;;;;;;26.10;14.57;;;7.10;99.90;;;;;;5207135;28;20202;-68
2021/04/29 01:09:29;;;;;;;29.60;16.13;;;7.10;99.90;;;;;;5207199;28;20214;-69
2021/04/29 01:12:05;;;;;;;21.53;14.60;;;7.10;99.90;;;;;;5207160;28;20214;-66
2021/04/29 01:14:38;;;;;;;23.40;14.13;;;7.00;99.90;;;;;;5207053;28;20202;-66
2021/04/29 01:17:11;;;;;;;26.33;13.77;;;7.00;99.90;;;;;;5206861;28;20238;-68
2021/04/29 01:19:47;;;;;;;22.07;14.47;;;7.00;99.90;;;;;;5206905;28;20206;-67
2021/04/29 01:22:19;;;;;;;22.00;13.97;;;7.00;99.90;;;;;;5206905;28;20205;-65
2021/04/29 01:24:59;;;;;;;25.17;13.13;;;7.00;99.90;;;;;;5205970;28;20652;-66
2021/04/29 01:27:32;;;;;;;24.03;13.23;;;7.00;99.90;;;;;;5206969;28;20633;-65
2021/04/29 01:30:12;;;;;;;20.40;13.13;;;7.00;99.90;;;;;;5207077;28;20205;-67
2021/04/29 01:32:44;;;;;;;27.20;13.60;;;7.00;99.90;;;;;;5206977;28;20206;-67
2021/04/29 01:35:16;;;;;;;21.73;13.67;;;7.00;99.90;;;;;;5206789;28;20205;-66
2021/04/29 01:37:50;;;;;;;21.67;14.10;;;7.00;99.90;;;;;;5207000;28;20563;-67
2021/04/29 01:40:22;;;;;;;26.47;15.43;;;7.00;99.90;;;;;;5205672;28;20209;-67
2021/04/29 01:42:54;;;;;;;27.17;15.70;;;7.00;99.90;;;;;;5206651;28;20202;-66
2021/04/29 01:45:26;;;;;;;21.77;14.43;;;7.00;99.90;;;;;;5206843;28;20672;-67
2021/04/29 01:47:57;;;;;;;24.53;14.57;;;7.00;99.90;;;;;;5206842;28;20225;-68
2021/04/29 01:50:29;;;;;;;23.80;14.47;;;7.00;99.90;;;;;;5206841;28;20230;-66
2021/04/29 01:53:03;;;;;;;26.80;14.00;;;7.00;99.90;;;;;;5206882;28;20202;-66
2021/04/29 01:55:35;;;;;;;31.80;14.33;;;7.00;99.90;;;;;;5206719;28;20210;-64
2021/04/29 01:58:06;;;;;;;24.37;14.47;;;7.00;99.90;;;;;;5206662;28;20217;-67
2021/04/29 02:00:38;;;;;;;26.13;13.40;;;7.00;99.90;;;;;;5206629;28;20208;-65
2021/04/29 02:03:09;;;;;;;23.20;13.40;;;6.90;99.90;;;;;;5206873;28;20669;-66
2021/04/29 02:05:41;;;;;;;24.57;14.07;;;6.90;99.90;;;;;;5206696;28;20300;-65
2021/04/29 02:08:12;;;;;;;21.37;12.80;;;6.90;99.90;;;;;;5206577;28;20538;-66
2021/04/29 02:10:44;;;;;;;20.00;12.53;;;6.90;99.90;;;;;;5206548;28;20210;-66
2021/04/29 02:13:16;;;;;;;22.10;13.90;;;6.90;99.90;;;;;;5207183;28;20233;-65
2021/04/29 02:15:56;;;;;;;28.33;14.87;;;6.80;99.90;;;;;;5210524;28;20234;-68
2021/04/29 02:18:29;;;;;;;26.20;14.27;;;6.80;99.90;;;;;;5210348;28;20238;-66
2021/04/29 02:21:01;;;;;;;22.87;13.40;;;6.80;99.90;;;;;;5210602;28;20533;-66
2021/04/29 02:23:33;;;;;;;24.33;14.77;;;6.70;99.90;;;;;;5210480;28;20210;-66
2021/04/29 02:26:05;;;;;;;26.17;15.40;;;6.60;99.90;;;;;;5210140;28;20221;-67
2021/04/29 02:28:37;;;;;;;25.53;15.63;;;6.50;99.90;;;;;;5210279;28;20213;-67
2021/04/29 02:31:10;;;;;;;29.37;14.80;;;6.50;99.90;;;;;;5210388;28;20280;-67
2021/04/29 02:33:41;;;;;;;24.00;14.43;;;6.50;99.90;;;;;;5210318;28;20202;-70
2021/04/29 02:36:13;;;;;;;20.97;12.87;;;6.50;99.90;;;;;;5208944;28;20234;-66
2021/04/29 02:38:45;;;;;;;19.43;13.30;;;6.40;99.90;;;;;;5210103;28;20565;-69
2021/04/29 02:41:17;;;;;;;18.87;12.17;;;6.40;99.90;;;;;;5210164;28;20205;-68
2021/04/29 02:43:50;;;;;;;19.30;12.03;;;6.40;99.90;;;;;;5209696;28;20285;-69
2021/04/29 02:46:23;;;;;;;19.00;12.23;;;6.40;99.90;;;;;;5209732;28;20209;-67
2021/04/29 02:48:54;;;;;;;19.33;11.90;;;6.40;99.90;;;;;;5209797;28;20292;-66
2021/04/29 02:51:26;;;;;;;19.67;12.43;;;6.40;99.90;;;;;;5209613;28;20217;-72
2021/04/29 02:53:58;;;;;;;21.27;13.10;;;6.30;99.90;;;;;;5209558;28;20684;-69
2021/04/29 02:56:30;;;;;;;21.90;13.83;;;6.30;99.90;;;;;;5209686;28;20234;-65
2021/04/29 02:59:01;;;;;;;19.27;12.83;;;6.30;99.90;;;;;;5209512;28;20203;-67
2021/04/29 03:01:34;;;;;;;19.03;13.33;;;6.30;99.90;;;;;;5209637;28;20206;-67
2021/04/29 03:04:06;;;;;;;23.90;14.60;;;6.30;99.90;;;;;;5210020;28;20206;-69
2021/04/29 03:06:37;;;;;;;22.83;13.77;;;6.30;99.90;;;;;;5209777;28;20678;-65
2021/04/29 03:09:08;;;;;;;23.57;14.53;;;6.30;99.90;;;;;;5209732;28;20213;-69
2021/04/29 03:11:40;;;;;;;18.27;12.40;;;6.20;99.90;;;;;;5209465;28;20210;-68
2021/04/29 03:14:11;;;;;;;21.33;13.07;;;6.20;99.90;;;;;;5209136;28;20202;-71
2021/04/29 03:16:43;;;;;;;19.20;12.03;;;6.20;99.90;;;;;;5209182;28;20249;-72
2021/04/29 03:19:15;;;;;;;18.33;11.87;;;6.20;99.90;;;;;;5209523;28;20207;-75
2021/04/29 03:21:47;;;;;;;16.13;12.40;;;6.20;99.90;;;;;;5210663;28;20213;-76
2021/04/29 03:24:18;;;;;;;17.10;11.53;;;6.10;99.90;;;;;;5209694;28;20210;-74
2021/04/29 03:26:50;;;;;;;18.97;11.70;;;6.20;99.90;;;;;;5209449;28;20566;-70
2021/04/29 03:29:21;;;;;;;17.03;10.93;;;6.10;99.90;;;;;;5209200;28;20572;-71
2021/04/29 03:31:53;;;;;;;20.00;11.93;;;6.10;99.90;;;;;;5212346;28;20221;-72
2021/04/29 03:34:24;;;;;;;18.47;11.00;;;6.20;99.90;;;;;;5209935;28;20664;-83
2021/04/29 03:36:56;;;;;;;16.40;10.43;;;6.20;99.90;;;;;;5212130;28;20248;-81
2021/04/29 03:39:27;;;;;;;15.63;10.90;;;6.10;99.90;;;;;;5211375;28;20293;-75
2021/04/29 03:41:59;;;;;;;19.67;11.50;;;6.20;99.90;;;;;;5210722;28;20216;-70
2021/04/29 03:44:31;;;;;;;18.23;11.53;;;6.20;99.90;;;;;;5210382;28;20202;-72
2021/04/29 03:47:03;;;;;;;17.10;12.63;;;6.20;99.90;;;;;;5209865;28;20623;-69
2021/04/29 03:49:35;;;;;;;19.03;13.03;;;6.20;99.90;;;;;;5209322;28;20729;-68
2021/04/29 03:52:07;;;;;;;20.60;13.77;;;6.30;99.90;;;;;;5208951;28;20260;-70
2021/04/29 03:54:40;;;;;;;22.83;13.70;;;6.30;99.90;;;;;;5209230;28;20653;-71
2021/04/29 03:57:11;;;;;;;17.33;12.80;;;6.30;99.90;;;;;;5209072;28;20226;-68
2021/04/29 03:59:43;;;;;;;17.10;13.07;;;6.30;99.90;;;;;;5208489;28;20210;-62
2021/04/29 04:02:14;;;;;;;18.30;12.30;;;6.30;99.90;;;;;;5209422;28;20579;-64
2021/04/29 04:04:46;;;;;;;17.10;12.17;;;6.30;99.90;;;;;;5208569;28;20213;-64
2021/04/29 04:07:17;;;;;;;20.70;12.00;;;6.40;99.90;;;;;;5208387;28;20305;-64
2021/04/29 04:09:49;;;;;;;17.80;12.13;;;6.40;99.90;;;;;;5208840;28;20196;-64
2021/04/29 04:12:20;;;;;;;17.77;11.43;;;6.40;99.90;;;;;;5208047;28;20199;-62
2021/04/29 04:14:51;;;;;;;19.77;11.53;;;6.40;99.90;;;;;;5207730;28;20194;-61
2021/04/29 04:17:23;;;;;;;19.57;11.97;;;6.50;99.90;;;;;;5207796;28;20238;-61
2021/04/29 04:20:01;;;;;;;21.03;12.60;;;6.50;99.90;;;;;;5207878;28;20209;-65
2021/04/29 04:22:32;;;;;;;19.70;12.70;;;6.50;99.90;;;;;;5207934;28;20198;-68
2021/04/29 04:25:05;;;;;;;21.60;11.83;;;6.60;99.90;;;;;;5207944;28;20198;-65
2021/04/29 04:27:36;;;;;;;21.47;12.83;;;6.60;99.90;;;;;;5208242;28;20198;-64
2021/04/29 04:30:08;;;;;;;17.73;11.87;;;6.70;99.90;;;;;;5207717;28;20202;-64
2021/04/29 04:32:40;;;;;;;17.27;11.63;;;6.70;99.90;;;;;;5207819;28;20556;-65
2021/04/29 04:35:12;;;;;;;21.27;12.47;;;6.80;99.90;;;;;;5207720;28;20194;-65
2021/04/29 04:37:44;;;;;;;18.37;11.33;;;6.90;99.90;;;;;;5207252;28;20218;-69
2021/04/29 04:40:15;;;;;;;22.67;12.43;;;6.90;99.90;;;;;;5207860;28;20209;-69
2021/04/29 04:42:47;;;;;;;16.77;11.63;;;7.00;99.90;;;;;;5207730;28;20193;-69
2021/04/29 04:45:18;;;;;;;19.33;11.50;;;7.10;99.90;;;;;;5206550;28;20213;-69
2021/04/29 04:47:50;;;;;;;19.27;12.40;;;7.10;99.90;;;;;;5207273;28;20237;-70
2021/04/29 04:50:22;;;;;;;21.00;12.60;;;7.20;99.90;;;;;;5207322;28;20244;-70
2021/04/29 04:52:53;;;;;;;21.73;12.83;;;7.20;99.90;;;;;;5207520;28;20190;-69
2021/04/29 04:55:24;;;;;;;16.40;10.63;;;7.30;99.90;;;;;;5207095;28;20198;-70
2021/04/29 04:57:57;;;;;;;20.23;12.10;;;7.40;99.90;;;;;;5207278;28;20222;-70
2021/04/29 05:00:28;;;;;;;17.17;11.00;;;7.50;99.90;;;;;;5206336;28;20213;-69
2021/04/29 05:03:00;;;;;;;22.53;10.47;;;7.50;99.90;;;;;;5207235;28;20194;-70
2021/04/29 05:05:31;;;;;;;24.43;11.80;;;7.60;99.90;;;;;;5207456;28;20293;-69
2021/04/29 05:08:04;;;;;;;17.90;10.80;;;7.60;99.90;;;;;;5207260;28;20197;-72
2021/04/29 05:10:36;;;;;;;18.80;11.60;;;7.70;99.90;;;;;;5207043;28;20289;-70
2021/04/29 05:13:07;;;;;;;22.63;11.27;;;7.70;99.90;;;;;;5206762;28;20285;-72
2021/04/29 05:15:39;;;;;;;23.83;11.87;;;7.70;99.90;;;;;;5206787;28;20201;-69
2021/04/29 05:18:10;;;;;;;17.87;11.33;;;7.80;99.90;;;;;;5206803;28;20610;-70
2021/04/29 05:20:42;;;;;;;19.90;10.93;;;7.90;99.90;;;;;;5206761;28;20193;-70
2021/04/29 05:23:13;;;;;;;18.97;11.57;;;8.00;99.90;;;;;;5206616;28;20663;-73
2021/04/29 05:25:44;;;;;;;17.17;11.53;;;8.20;99.90;;;;;;5206834;28;20559;-71
2021/04/29 05:28:16;;;;;;;17.23;11.37;;;8.30;99.90;;;;;;5206522;28;20201;-71
2021/04/29 05:30:47;;;;;;;20.00;11.20;;;8.50;99.90;;;;;;5206884;28;20197;-71
2021/04/29 05:33:18;;;;;;;22.67;11.60;;;8.70;99.90;;;;;;5206931;28;20215;-74
2021/04/29 05:35:50;;;;;;;17.40;11.30;;;8.80;99.90;;;;;;5206534;28;20198;-73
2021/04/29 05:38:21;;;;;;;18.40;11.07;;;8.90;99.90;;;;;;5206900;28;20195;-72
2021/04/29 05:40:52;;;;;;;19.67;10.77;;;8.90;99.90;;;;;;5206680;28;20217;-72
2021/04/29 05:43:24;;;;;;;17.03;10.50;;;9.10;99.90;;;;;;5206898;28;20194;-73
2021/04/29 05:45:56;;;;;;;17.77;10.20;;;9.10;99.90;;;;;;5206897;28;20273;-72
2021/04/29 05:48:27;;;;;;;16.97;10.43;;;9.10;99.90;;;;;;5208143;28;20564;-73
2021/04/29 05:50:59;;;;;;;18.10;10.83;;;9.10;99.90;;;;;;5210986;28;20198;-72
2021/04/29 05:53:30;;;;;;;25.90;11.13;;;9.10;99.90;;;;;;5210994;28;20198;-72
2021/04/29 05:56:02;;;;;;;19.57;11.00;;;9.20;99.90;;;;;;5210592;28;20198;-73
2021/04/29 05:58:34;;;;;;;15.60;10.60;;;9.20;99.90;;;;;;5210936;28;20583;-73
2021/04/29 06:01:05;;;;;;;19.73;11.33;;;9.20;99.90;;;;;;5209873;28;20274;-73
2021/04/29 06:03:37;;;;;;;23.33;11.13;;;9.30;99.90;;;;;;5210780;28;20529;-74
2021/04/29 06:06:09;;;;;;;17.70;11.13;;;9.40;99.90;;;;;;5210437;28;20556;-70
2021/04/29 06:08:40;;;;;;;19.70;11.33;;;9.40;99.90;;;;;;5210239;28;20194;-73
2021/04/29 06:11:11;;;;;;;22.43;12.23;;;9.40;99.90;;;;;;5210823;28;20186;-73
2021/04/29 06:13:44;;;;;;;21.07;11.33;;;9.40;99.90;;;;;;5210361;28;20199;-73
2021/04/29 06:16:16;;;;;;;30.93;12.00;;;9.50;99.90;;;;;;5210321;28;20213;-79
2021/04/29 06:18:47;;;;;;;18.63;10.83;;;9.60;99.90;;;;;;5211005;28;20238;-75
2021/04/29 06:21:19;;;;;;;16.23;11.17;;;9.70;99.90;;;;;;5211700;28;20195;-74
2021/04/29 06:23:51;;;;;;;19.03;11.60;;;9.80;99.90;;;;;;5210673;28;20564;-73
2021/04/29 06:26:23;;;;;;;27.60;12.00;;;9.90;99.90;;;;;;5210044;28;20201;-73
2021/04/29 06:32:42;;;;;;;17.07;11.57;;;10.10;99.90;;;;;;5209920;28;20249;-74
2021/04/29 06:35:13;;;;;;;15.67;10.67;;;10.20;99.90;;;;;;5209942;28;20204;-76
2021/04/29 06:37:45;;;;;;;16.73;10.90;;;10.40;99.90;;;;;;5209457;28;20218;-74
2021/04/29 06:40:16;;;;;;;16.77;11.40;;;10.60;99.90;;;;;;5210090;28;20194;-73
2021/04/29 06:42:48;;;;;;;19.30;10.80;;;10.70;99.90;;;;;;5209741;28;20206;-72
2021/04/29 06:49:06;;;;;;;21.23;11.20;;;11.00;99.90;;;;;;5209684;28;20162;-74
2021/04/29 06:51:38;;;;;;;25.07;11.17;;;11.50;99.90;;;;;;5209827;28;20653;-71
2021/04/29 06:54:09;;;;;;;18.90;10.90;;;11.90;99.90;;;;;;5209902;28;20191;-71
2021/04/29 06:56:41;;;;;;;28.70;13.30;;;12.40;99.90;;;;;;5209759;28;20219;-69
2021/04/29 06:59:12;;;;;;;19.93;11.27;;;12.80;99.90;;;;;;5209764;28;20550;-68
2021/04/29 07:01:44;;;;;;;18.67;10.83;;;13.30;99.90;;;;;;5208772;28;20198;-67
2021/04/29 07:04:15;;;;;;;17.77;10.10;;;13.60;99.90;;;;;;5209301;28;20186;-68
2021/04/29 07:06:46;;;;;;;18.40;10.17;;;13.80;99.90;;;;;;5204546;28;20194;-66
2021/04/29 07:09:18;;;;;;;21.43;10.37;;;13.80;99.90;;;;;;5208095;28;20194;-67
2021/04/29 07:11:49;;;;;;;15.40;9.93;;;13.70;99.90;;;;;;5209283;28;20197;-66
2021/04/29 07:14:21;;;;;;;20.13;10.57;;;13.70;99.90;;;;;;5209503;28;20213;-67
2021/04/29 07:16:52;;;;;;;17.07;10.50;;;13.60;99.90;;;;;;5208806;28;20617;-67
2021/04/29 07:19:24;;;;;;;14.93;10.27;;;13.70;99.90;;;;;;5209051;28;20291;-67
2021/04/29 07:21:56;;;;;;;13.37;9.83;;;13.70;99.90;;;;;;5208191;28;20190;-66
2021/04/29 07:24:27;;;;;;;20.07;9.90;;;13.70;99.90;;;;;;5209242;28;20198;-68
2021/04/29 07:27:01;;;;;;;17.13;10.87;;;14.00;99.90;;;;;;5208865;28;20190;-67
2021/04/29 07:29:33;;;;;;;17.37;10.53;;;14.10;99.90;;;;;;5208653;28;20516;-68
2021/04/29 07:32:05;;;;;;;16.23;9.97;;;14.30;99.90;;;;;;5205762;28;20194;-71
2021/04/29 07:34:37;;;;;;;17.93;10.80;;;14.50;99.90;;;;;;5206646;28;20198;-70
2021/04/29 07:37:08;;;;;;;14.97;9.87;;;14.90;99.90;;;;;;5207576;28;20225;-65
2021/04/29 07:39:41;;;;;;;16.47;9.93;;;15.10;99.90;;;;;;5203463;28;20230;-68
2021/04/29 07:42:12;;;;;;;16.80;10.37;;;15.40;99.90;;;;;;5223543;28;20216;-68
2021/04/29 07:44:43;;;;;;;15.90;10.83;;;15.90;99.80;;;;;;5208400;28;20640;-65
2021/04/29 07:47:15;;;;;;;14.93;10.00;;;16.00;98.80;;;;;;5208421;28;20552;-68
2021/04/29 07:49:47;;;;;;;21.00;11.50;;;16.00;97.70;;;;;;5207743;28;20194;-69
2021/04/29 07:52:18;;;;;;;17.10;10.33;;;15.60;97.50;;;;;;5206793;28;20194;-73
2021/04/29 07:54:50;;;;;;;16.53;10.57;;;15.50;98.50;;;;;;5201351;28;20557;-72
2021/04/29 07:57:23;;;;;;;17.57;11.07;;;15.40;97.70;;;;;;5202114;28;20241;-69
2021/04/29 07:59:55;;;;;;;21.20;10.93;;;15.40;98.10;;;;;;5206716;28;20195;-69
2021/04/29 08:02:26;;;;;;;16.90;11.60;;;15.30;97.70;;;;;;5203496;28;20217;-68
2021/04/29 08:04:58;;;;;;;23.10;10.43;;;15.20;98.10;;;;;;5199747;28;20245;-68
2021/04/29 08:07:30;;;;;;;24.20;11.33;;;15.20;97.60;;;;;;5207515;28;20191;-66
2021/04/29 08:10:06;;;;;;;16.33;10.03;;;15.10;98.20;;;;;;5207961;28;20218;-67
2021/04/29 08:12:42;;;;;;;16.13;10.50;;;15.00;97.40;;;;;;5206411;28;20198;-67
2021/04/29 08:15:15;;;;;;;18.10;10.00;;;14.80;97.50;;;;;;5206886;28;20198;-67
2021/04/29 08:17:46;;;;;;;16.80;10.00;;;14.60;98.00;;;;;;5207217;28;20328;-67
2021/04/29 08:20:18;;;;;;;18.23;10.17;;;14.30;98.10;;;;;;5208058;28;20201;-66
2021/04/29 08:22:52;;;;;;;15.67;10.30;;;14.10;98.30;;;;;;5208363;28;20198;-70
2021/04/29 08:25:28;;;;;;;15.23;9.93;;;13.90;98.80;;;;;;5208793;28;20288;-67
2021/04/29 08:28:00;;;;;;;16.23;10.10;;;13.70;99.10;;;;;;5208016;28;20194;-68
2021/04/29 08:30:32;;;;;;;18.90;9.97;;;13.50;99.60;;;;;;5207515;28;20201;-67
2021/04/29 08:33:03;;;;;;;19.83;9.97;;;13.50;99.90;;;;;;5207457;28;20199;-66
2021/04/29 08:35:35;;;;;;;16.57;10.00;;;13.40;99.90;;;;;;5223953;28;20197;-69
2021/04/29 08:38:06;;;;;;;28.30;10.07;;;13.50;99.90;;;;;;5207962;28;20254;-67
2021/04/29 08:40:38;;;;;;;17.13;9.77;;;13.60;99.90;;;;;;5207768;28;20194;-65
2021/04/29 08:43:10;;;;;;;17.87;9.43;;;13.80;99.90;;;;;;5223683;28;20652;-69
2021/04/29 08:45:44;;;;;;;18.67;9.13;;;13.80;99.90;;;;;;5208209;28;20202;-65
2021/04/29 08:48:21;;;;;;;19.77;10.43;;;13.80;99.90;;;;;;5223788;28;20703;-70
2021/04/29 08:50:53;;;;;;;18.53;10.30;;;13.90;99.90;;;;;;5208804;28;20190;-74
2021/04/29 08:53:25;;;;;;;16.00;9.90;;;13.90;99.90;;;;;;5208704;28;20205;-71
2021/04/29 08:55:56;;;;;;;17.10;9.53;;;13.90;99.90;;;;;;5209000;28;20191;-67
2021/04/29 08:58:29;;;;;;;13.57;9.00;;;13.90;99.90;;;;;;5223348;28;20222;-69
2021/04/29 09:01:03;;;;;;;17.90;9.43;;;13.90;99.90;;;;;;5208368;28;20214;-69
2021/04/29 09:03:35;;;;;;;13.60;8.60;;;14.00;99.90;;;;;;5220791;28;20273;-67
2021/04/29 09:06:07;;;;;;;14.45;8.48;;;14.10;99.90;;;;;;5206933;28;20094;-71
2021/04/29 09:08:40;;;;;;;15.67;8.50;;;14.00;99.20;;;;;;5222415;28;20194;-69
2021/04/29 09:11:19;;;;;;;13.80;8.10;;;14.00;98.90;;;;;;5205034;28;20205;-73
2021/04/29 09:13:58;;;;;;;13.07;8.43;;;14.10;98.40;;;;;;5207452;28;20198;-73
2021/04/29 09:16:46;;;;;;;14.03;8.63;;;14.10;98.30;;;;;;5205001;28;20218;-74
2021/04/29 09:19:23;;;;;;;13.07;8.47;;;14.20;98.20;;;;;;5222002;28;20237;-72
2021/04/29 09:21:59;;;;;;;16.37;8.67;;;14.30;98.30;;;;;;5222512;28;20213;-72
2021/04/29 09:24:39;;;;;;;23.53;11.30;;;14.60;98.80;;;;;;5206171;28;20559;-72
2021/04/29 09:27:24;;;;;;;23.63;12.57;;;14.90;99.90;;;;;;5205279;28;20212;-72
2021/04/29 09:29:57;;;;;;;23.47;12.00;;;15.00;99.90;;;;;;5206668;28;20198;-73
2021/04/29 09:32:35;;;;;;;20.30;11.53;;;15.40;99.90;;;;;;5207166;28;20191;-71
2021/04/29 09:35:18;;;;;;;24.23;11.90;;;15.60;99.90;;;;;;5206448;28;20244;-72
2021/04/29 09:37:50;;;;;;;22.47;11.20;;;15.80;99.90;;;;;;5206137;28;20308;-71
2021/04/29 09:40:29;;;;;;;22.43;11.13;;;15.80;99.30;;;;;;5204870;28;20190;-73
2021/04/29 09:43:01;;;;;;;23.43;11.53;;;15.80;99.90;;;;;;5206077;28;20198;-72
2021/04/29 09:49:23;;;;;;;21.10;11.40;;;15.80;99.90;;;;;;5206234;28;20175;-71
2021/04/29 09:51:57;;;;;;;17.27;9.80;;;15.70;99.90;;;;;;5206398;28;20198;-70
2021/04/29 09:54:34;;;;;;;18.93;10.43;;;15.60;99.90;;;;;;5207151;28;20190;-72
2021/04/29 09:57:08;;;;;;;18.50;10.90;;;15.30;99.90;;;;;;5206568;28;20218;-72
2021/04/29 09:59:44;;;;;;;18.53;10.33;;;15.10;99.90;;;;;;5195136;28;20560;-71
2021/04/29 10:06:02;;;;;;;16.43;10.73;;;14.30;99.90;;;;;;5206262;28;20244;-70
2021/04/29 10:08:34;;;;;;;19.17;11.98;;;14.00;99.90;;;;;;5206365;28;20433;-76
2021/04/29 10:11:08;;;;;;;21.30;12.48;;;13.90;99.90;;;;;;5205603;28;20423;-74
2021/04/29 10:13:44;;;;;;;21.03;11.50;;;14.00;99.90;;;;;;5205904;28;20209;-72
2021/04/29 10:16:16;;;;;;;15.90;10.80;;;13.90;99.90;;;;;;5207059;28;20190;-79
2021/04/29 10:18:49;;;;;;;15.77;10.73;;;13.90;99.90;;;;;;5207373;28;20246;-72
2021/04/29 10:21:21;;;;;;;16.87;10.67;;;13.90;99.90;;;;;;5204986;28;20187;-76
2021/04/29 10:23:54;;;;;;;19.53;10.57;;;14.00;99.90;;;;;;5206937;28;20543;-71
2021/04/29 10:26:31;;;;;;;17.63;9.97;;;14.10;99.90;;;;;;5206641;28;20548;-77
2021/04/29 10:29:06;;;;;;;14.87;9.83;;;14.10;99.90;;;;;;5205800;28;20286;-74
2021/04/29 10:31:39;;;;;;;19.67;9.90;;;14.20;99.90;;;;;;5220329;28;20233;-77
2021/04/29 10:34:10;;;;;;;19.33;10.63;;;14.20;99.90;;;;;;5206948;28;20212;-76
2021/04/29 10:36:46;;;;;;;17.17;10.33;;;14.40;99.90;;;;;;5222047;28;20222;-73
2021/04/29 10:39:22;;;;;;;19.87;9.93;;;14.40;99.90;;;;;;5209458;28;20197;-84
2021/04/29 10:42:12;;;;;;;16.70;9.67;;;14.40;99.90;;;;;;5209908;28;20212;-75
2021/04/29 10:44:46;;;;;;;17.60;9.33;;;14.50;99.90;;;;;;5209811;28;20656;-70
2021/04/29 10:47:31;;;;;;;20.03;10.03;;;14.50;99.90;;;;;;5207675;28;20549;-71
2021/04/29 10:50:18;;;;;;;18.83;9.50;;;14.40;99.90;;;;;;5207457;28;20194;-68
2021/04/29 10:52:56;;;;;;;18.50;9.60;;;14.40;99.90;;;;;;5208025;28;20241;-72
2021/04/29 10:55:29;;;;;;;18.40;9.23;;;14.40;99.90;;;;;;5652174;22;20759;-67
2021/04/29 10:58:02;;;;;;;15.63;9.50;;;14.40;99.90;;;;;;5178414;28;20218;-67
2021/04/29 11:00:58;;;;;;;15.70;9.93;;;14.30;99.90;;;;;;5185928;28;20194;-68
2021/04/29 11:03:33;;;;;;;20.43;9.67;;;14.20;99.90;;;;;;5183905;28;20202;-69
2021/04/29 11:06:04;;;;;;;21.53;9.43;;;14.20;99.90;;;;;;5188471;28;20229;-71
2021/04/29 11:08:44;;;;;;;19.93;8.83;;;14.20;99.90;;;;;;5187612;28;20198;-75
2021/04/29 11:11:22;;;;;;;15.50;8.03;;;14.10;99.90;;;;;;5188015;28;20217;-72
2021/04/29 11:13:58;;;;;;;16.47;8.93;;;14.20;99.90;;;;;;5188295;28;20246;-70
2021/04/29 11:16:44;;;;;;;16.40;7.77;;;14.20;99.90;;;;;;5187808;28;20249;-70
2021/04/29 11:19:39;;;;;;;17.03;7.27;;;14.20;99.90;;;;;;5202965;28;20872;-70
2021/04/29 11:22:34;;;;;;;13.30;7.47;;;14.30;99.90;;;;;;5187951;28;20283;-71
2021/04/29 11:25:09;;;;;;;15.90;7.80;;;14.30;99.90;;;;;;5187964;28;20218;-71
2021/04/29 11:27:40;;;;;;;24.37;9.27;;;14.30;99.90;;;;;;5183089;28;20650;-69
2021/04/29 11:30:14;;;;;;;18.93;8.30;;;14.20;99.90;;;;;;5187558;28;20249;-70
2021/04/29 11:33:00;;;;;;;20.27;7.67;;;14.30;99.90;;;;;;5187314;28;20298;-70
2021/04/29 11:35:34;;;;;;;16.07;7.80;;;14.30;99.90;;;;;;5186605;28;21000;-66
2021/04/29 11:38:07;;;;;;;20.63;8.53;;;14.30;99.90;;;;;;5173631;28;20234;-69
2021/04/29 11:40:39;;;;;;;20.60;9.90;;;14.40;99.90;;;;;;5166038;28;20195;-72
2021/04/29 11:43:11;;;;;;;17.27;8.53;;;14.40;99.90;;;;;;5190086;28;20207;-69
2021/04/29 11:45:43;;;;;;;20.00;8.27;;;14.40;99.90;;;;;;5180093;28;20556;-71
2021/04/29 11:48:15;;;;;;;13.43;6.93;;;14.40;99.90;;;;;;5187223;28;20203;-71
2021/04/29 11:50:51;;;;;;;8.87;5.53;;;14.40;99.90;;;;;;5186971;28;20195;-71
2021/04/29 11:53:28;;;;;;;6.83;4.27;;;14.30;99.90;;;;;;5173054;28;20680;-70
2021/04/29 11:56:05;;;;;;;9.60;3.77;;;14.20;99.90;;;;;;5186431;28;20235;-72
2021/04/29 11:58:36;;;;;;;7.87;3.10;;;13.90;99.90;;;;;;5202282;28;20222;-71
2021/04/29 12:01:15;;;;;;;4.67;3.23;;;13.80;99.90;;;;;;5187331;28;20553;-69
2021/04/29 12:03:47;;;;;;;6.00;3.67;;;13.60;99.90;;;;;;5186382;28;20261;-70
2021/04/29 12:06:19;;;;;;;5.50;3.73;;;13.60;99.90;;;;;;5187090;28;20634;-71
2021/04/29 12:08:51;;;;;;;7.30;4.03;;;13.50;99.90;;;;;;5200204;28;20201;-70
2021/04/29 12:11:22;;;;;;;6.70;4.23;;;13.50;99.90;;;;;;5187335;28;20203;-72
2021/04/29 12:13:54;;;;;;;10.30;5.00;;;13.50;99.90;;;;;;5199090;28;20206;-70
2021/04/29 12:16:29;;;;;;;6.13;4.80;;;13.50;99.90;;;;;;5186915;28;20286;-71
2021/04/29 12:19:03;;;;;;;10.40;4.70;;;13.50;99.90;;;;;;5186655;28;20210;-69
2021/04/29 12:21:34;;;;;;;8.70;4.77;;;13.50;99.90;;;;;;5186938;28;20217;-70
2021/04/29 12:24:09;;;;;;;10.00;4.57;;;13.60;99.90;;;;;;5186946;28;20218;-70
2021/04/29 12:26:41;;;;;;;6.90;4.60;;;13.60;99.90;;;;;;5185088;28;20196;-70
2021/04/29 12:29:22;;;;;;;9.63;5.07;;;13.60;99.90;;;;;;5185046;28;20641;-70
2021/04/29 12:32:01;;;;;;;9.83;5.67;;;13.60;99.90;;;;;;5186643;28;20187;-73
2021/04/29 12:34:41;;;;;;;6.97;5.83;;;13.70;99.90;;;;;;5201946;28;20256;-74
2021/04/29 12:37:13;;;;;;;10.07;5.60;;;13.70;99.90;;;;;;5186507;28;20715;-70
2021/04/29 12:39:46;;;;;;;7.43;5.77;;;13.70;99.90;;;;;;5186780;28;20202;-72
2021/04/29 12:42:22;;;;;;;11.77;6.30;;;13.70;99.90;;;;;;5186964;28;20210;-69
2021/04/29 12:45:00;;;;;;;12.40;6.20;;;13.60;99.90;;;;;;5186763;28;20517;-59
2021/04/29 12:47:34;;;;;;;8.60;5.77;;;13.60;99.90;;;;;;5185726;28;20199;-71
2021/04/29 12:50:11;;;;;;;8.53;5.80;;;13.60;99.90;;;;;;5179883;28;20294;-72
2021/04/29 12:52:59;;;;;;;7.50;5.73;;;13.60;99.90;;;;;;5185398;28;20214;-71
2021/04/29 12:55:40;;;;;;;7.60;5.53;;;13.60;99.90;;;;;;5187480;28;20237;-69
2021/04/29 12:58:13;;;;;;;9.27;5.50;;;13.60;99.90;;;;;;5186273;28;20608;-70
2021/04/29 13:00:54;;;;;;;10.07;5.77;;;13.60;99.90;;;;;;5186002;28;20202;-74
2021/04/29 13:03:42;;;;;;;7.80;5.93;;;13.60;99.90;;;;;;5184493;28;20206;-70
2021/04/29 13:06:15;;;;;;;8.73;5.93;;;13.60;99.90;;;;;;5181727;28;20195;-72
2021/04/29 13:08:53;;;;;;;9.77;6.50;;;13.60;99.90;;;;;;5187131;28;20191;-72
2021/04/29 13:11:31;;;;;;;8.70;6.00;;;13.60;99.90;;;;;;5187512;28;20194;-68
2021/04/29 13:14:10;;;;;;;10.23;6.33;;;13.50;99.90;;;;;;5186827;28;20195;-69
2021/04/29 13:16:44;;;;;;;6.80;5.60;;;13.60;99.90;;;;;;5187225;28;20281;-70
2021/04/29 13:19:16;;;;;;;8.07;5.37;;;13.60;99.90;;;;;;5186313;28;20226;-71
2021/04/29 13:21:48;;;;;;;8.27;6.00;;;13.60;99.90;;;;;;5178844;28;20595;-72